createdAt,value
2023-04-22T00:02:10.255Z,16.13
2023-04-22T00:04:38.696Z,12.23
2023-04-22T00:07:07.291Z,14.80
2023-04-22T00:09:36.358Z,13.70
2023-04-22T00:12:04.020Z,21.50
2023-04-22T00:14:32.288Z,12.88
2023-04-22T00:17:00.757Z,13.68
2023-04-22T00:19:29.422Z,16.35
2023-04-22T00:21:57.467Z,14.40
2023-04-22T00:24:26.043Z,14.95
2023-04-22T00:26:54.490Z,18.02
2023-04-22T00:29:22.838Z,14.43
2023-04-22T00:31:51.603Z,13.60
2023-04-22T00:34:19.841Z,18.20
2023-04-22T00:36:48.250Z,17.52
2023-04-22T00:39:16.589Z,11.80
2023-04-22T00:41:45.059Z,15.38
2023-04-22T00:44:13.511Z,13.98
2023-04-22T00:46:41.870Z,15.82
2023-04-22T00:49:10.192Z,15.32
2023-04-22T00:51:38.686Z,16.65
2023-04-22T00:54:07.033Z,17.13
2023-04-22T00:56:39.792Z,16.40
2023-04-22T00:59:10.978Z,14.77
2023-04-22T01:01:40.055Z,14.13
2023-04-22T01:04:12.713Z,17.65
2023-04-22T01:06:44.738Z,14.02
2023-04-22T01:09:14.247Z,15.82
2023-04-22T01:11:46.483Z,17.30
2023-04-22T01:14:14.732Z,15.27
2023-04-22T01:16:46.547Z,14.15
2023-04-22T01:19:16.649Z,15.85
2023-04-22T01:21:50.639Z,18.08
2023-04-22T01:24:20.638Z,16.23
2023-04-22T01:26:50.615Z,16.63
2023-04-22T01:29:18.381Z,14.82
2023-04-22T01:31:48.805Z,15.23
2023-04-22T01:34:18.724Z,19.52
2023-04-22T01:36:49.587Z,15.07
2023-04-22T01:39:19.008Z,15.55
2023-04-22T01:41:49.779Z,16.88
2023-04-22T01:44:19.985Z,16.52
2023-04-22T01:46:49.641Z,18.17
2023-04-22T01:49:19.360Z,15.57
2023-04-22T01:51:49.249Z,17.85
2023-04-22T01:54:19.199Z,14.85
2023-04-22T01:56:55.879Z,17.40
2023-04-22T01:59:24.999Z,16.75
2023-04-22T02:01:54.642Z,16.70
2023-04-22T02:04:24.565Z,17.10
2023-04-22T02:06:54.323Z,20.58
2023-04-22T02:09:22.807Z,16.20
2023-04-22T02:11:51.272Z,18.75
2023-04-22T02:14:19.598Z,16.65
2023-04-22T02:16:48.054Z,16.40
2023-04-22T02:19:16.441Z,15.00
2023-04-22T02:21:44.960Z,18.25
2023-04-22T02:24:13.327Z,15.35
2023-04-22T02:26:41.708Z,17.25
2023-04-22T02:29:10.124Z,18.02
2023-04-22T02:31:38.808Z,14.95
2023-04-22T02:34:06.987Z,15.05
2023-04-22T02:36:35.506Z,17.92
2023-04-22T02:39:05.700Z,17.75
2023-04-22T02:41:35.404Z,40.75
2023-04-22T02:44:03.679Z,14.00
2023-04-22T02:46:32.135Z,17.25
2023-04-22T02:49:00.512Z,15.18
2023-04-22T02:51:29.175Z,14.77
2023-04-22T02:53:57.386Z,16.20
2023-04-22T02:56:26.855Z,18.98
2023-04-22T02:58:54.233Z,17.75
2023-04-22T03:01:22.792Z,14.73
2023-04-22T03:03:51.248Z,21.80
2023-04-22T03:06:19.719Z,17.40
2023-04-22T03:08:48.030Z,17.38
2023-04-22T03:11:16.523Z,16.40
2023-04-22T03:13:44.819Z,14.82
2023-04-22T03:16:13.445Z,16.40
2023-04-22T03:18:41.750Z,21.67
2023-04-22T03:21:10.078Z,18.58
2023-04-22T03:23:38.464Z,18.55
2023-04-22T03:26:07.301Z,16.27
2023-04-22T03:28:35.384Z,18.20
2023-04-22T03:31:03.773Z,17.63
2023-04-22T03:33:32.276Z,16.45
2023-04-22T03:36:00.726Z,16.67
2023-04-22T03:38:28.991Z,20.52
2023-04-22T03:40:57.497Z,17.17
2023-04-22T03:43:25.912Z,18.85
2023-04-22T03:45:54.354Z,18.45
2023-04-22T03:48:22.762Z,17.90
2023-04-22T03:50:51.199Z,17.02
2023-04-22T03:53:19.596Z,18.70
2023-04-22T03:55:47.991Z,19.60
2023-04-22T03:58:16.410Z,19.27
2023-04-22T04:00:44.860Z,18.88
2023-04-22T04:03:13.332Z,16.92
2023-04-22T04:05:42.057Z,19.05
2023-04-22T04:08:10.274Z,17.95
2023-04-22T04:10:38.764Z,18.75
2023-04-22T04:13:07.150Z,20.90
2023-04-22T04:15:37.401Z,17.05
2023-04-22T04:18:07.150Z,19.20
2023-04-22T04:20:35.482Z,19.40
2023-04-22T04:23:03.746Z,17.80
2023-04-22T04:25:38.992Z,23.50
2023-04-22T04:28:11.380Z,23.80
2023-04-22T04:30:41.862Z,19.73
2023-04-22T04:33:12.747Z,19.35
2023-04-22T04:35:41.802Z,16.00
2023-04-22T04:38:13.020Z,19.05
2023-04-22T04:40:43.757Z,21.63
2023-04-22T04:43:14.553Z,17.92
2023-04-22T04:45:48.323Z,17.55
2023-04-22T04:48:16.979Z,17.60
2023-04-22T04:50:47.308Z,22.20
2023-04-22T04:53:17.263Z,20.98
2023-04-22T04:55:48.004Z,19.00
2023-04-22T04:58:17.924Z,20.77
2023-04-22T05:00:47.824Z,17.90
2023-04-22T05:03:17.876Z,20.48
2023-04-22T05:05:49.189Z,17.30
2023-04-22T05:08:18.491Z,18.35
2023-04-22T05:10:48.387Z,20.42
2023-04-22T05:13:18.261Z,20.48
2023-04-22T05:15:48.078Z,17.90
2023-04-22T05:18:18.559Z,19.67
2023-04-22T05:20:47.870Z,17.75
2023-04-22T05:23:17.651Z,19.30
2023-04-22T05:25:47.579Z,17.30
2023-04-22T05:28:17.362Z,19.70
2023-04-22T05:30:47.283Z,20.15
2023-04-22T05:33:17.238Z,16.65
2023-04-22T05:35:47.408Z,17.83
2023-04-22T05:38:17.220Z,18.58
2023-04-22T05:40:46.929Z,16.65
2023-04-22T05:43:16.820Z,19.25
2023-04-22T05:45:47.313Z,16.38
2023-04-22T05:48:16.672Z,18.08
2023-04-22T05:50:46.430Z,20.40
2023-04-22T05:53:16.369Z,16.67
2023-04-22T05:55:46.266Z,15.57
2023-04-22T05:58:15.984Z,18.55
2023-04-22T06:00:44.295Z,19.88
2023-04-22T06:03:13.008Z,15.45
2023-04-22T06:05:41.410Z,18.33
2023-04-22T06:08:09.733Z,17.10
2023-04-22T06:10:37.976Z,21.08
2023-04-22T06:13:06.616Z,17.83
2023-04-22T06:15:36.331Z,19.35
2023-04-22T06:18:06.456Z,17.55
2023-04-22T06:20:36.052Z,20.75
2023-04-22T06:23:06.142Z,19.45
2023-04-22T06:25:35.087Z,22.02
2023-04-22T06:28:05.346Z,18.75
2023-04-22T06:30:35.591Z,20.35
2023-04-22T06:33:05.730Z,15.65
2023-04-22T06:35:36.249Z,16.02
2023-04-22T06:38:06.183Z,18.95
2023-04-22T06:40:36.346Z,18.88
2023-04-22T06:43:06.494Z,15.98
2023-04-22T06:45:36.952Z,20.80
2023-04-22T06:48:06.846Z,19.85
2023-04-22T06:50:37.081Z,19.73
2023-04-22T06:53:07.248Z,16.33
2023-04-22T06:55:37.635Z,15.00
2023-04-22T06:58:07.642Z,18.48
2023-04-22T07:00:37.796Z,15.73
2023-04-22T07:03:08.043Z,16.70
2023-04-22T07:05:39.745Z,14.00
2023-04-22T07:08:08.417Z,15.52
2023-04-22T07:10:38.537Z,15.27
2023-04-22T07:13:08.788Z,18.13
2023-04-22T07:15:39.025Z,16.20
2023-04-22T07:18:09.269Z,16.30
2023-04-22T07:20:39.401Z,19.88
2023-04-22T07:23:09.524Z,15.25
2023-04-22T07:25:39.698Z,18.48
2023-04-22T07:28:09.908Z,19.67
2023-04-22T07:30:39.977Z,15.43
2023-04-22T07:33:10.273Z,15.70
2023-04-22T07:35:40.864Z,12.50
2023-04-22T07:38:12.126Z,15.52
2023-04-22T07:40:40.843Z,18.98
2023-04-22T07:43:11.092Z,13.70
2023-04-22T07:45:41.054Z,18.67
2023-04-22T07:48:11.261Z,16.48
2023-04-22T07:50:41.421Z,14.23
2023-04-22T07:53:10.965Z,17.80
2023-04-22T07:55:38.345Z,20.35
2023-04-22T07:58:06.937Z,17.25
2023-04-22T08:00:36.023Z,17.90
2023-04-22T08:03:05.066Z,14.63
2023-04-22T08:05:35.081Z,17.48
2023-04-22T08:08:03.372Z,13.10
2023-04-22T08:10:32.017Z,16.90
2023-04-22T08:13:00.600Z,14.50
2023-04-22T08:15:28.775Z,14.25
2023-04-22T08:17:57.194Z,20.17
2023-04-22T08:20:25.999Z,18.77
2023-04-22T08:22:58.257Z,14.10
2023-04-22T08:25:29.071Z,14.13
2023-04-22T08:27:59.244Z,14.60
2023-04-22T08:30:29.627Z,16.25
2023-04-22T08:32:59.807Z,17.05
2023-04-22T08:35:36.822Z,19.65
2023-04-22T08:38:07.157Z,15.02
2023-04-22T08:40:42.526Z,18.45
2023-04-22T08:43:13.343Z,14.52
2023-04-22T08:45:45.356Z,13.75
2023-04-22T08:48:16.449Z,13.63
2023-04-22T08:50:49.474Z,13.43
2023-04-22T08:53:24.454Z,13.80
2023-04-22T08:55:57.362Z,12.43
2023-04-22T08:58:30.276Z,12.75
2023-04-22T09:01:03.278Z,16.40
2023-04-22T09:03:37.504Z,13.32
2023-04-22T09:06:12.337Z,17.02
2023-04-22T09:08:43.492Z,11.43
2023-04-22T09:11:11.529Z,11.80
2023-04-22T09:13:39.345Z,12.68
2023-04-22T09:16:07.862Z,12.55
2023-04-22T09:18:46.089Z,11.98
2023-04-22T09:21:16.701Z,13.13
2023-04-22T09:23:54.864Z,17.40
2023-04-22T09:26:27.034Z,19.75
2023-04-22T09:28:59.478Z,15.40
2023-04-22T09:31:29.852Z,15.02
2023-04-22T09:34:01.616Z,13.90
2023-04-22T09:36:40.722Z,12.00
2023-04-22T09:39:11.468Z,12.05
2023-04-22T09:41:42.070Z,11.38
2023-04-22T09:44:20.698Z,12.20
2023-04-22T09:46:51.458Z,12.80
2023-04-22T09:49:21.861Z,12.27
2023-04-22T09:51:58.314Z,11.50
2023-04-22T09:54:28.385Z,17.17
2023-04-22T09:56:58.837Z,12.50
2023-04-22T09:59:30.725Z,14.18
2023-04-22T10:02:07.317Z,18.20
2023-04-22T10:04:38.678Z,14.18
2023-04-22T10:07:09.044Z,10.25
2023-04-22T10:09:40.159Z,13.43
2023-04-22T10:12:12.251Z,11.73
2023-04-22T10:14:42.394Z,13.55
2023-04-22T10:17:15.178Z,12.10
2023-04-22T10:19:49.338Z,9.38
2023-04-22T10:22:19.871Z,11.73
2023-04-22T10:24:55.427Z,10.73
2023-04-22T10:27:25.683Z,10.68
2023-04-22T10:29:57.776Z,14.18
2023-04-22T10:32:28.407Z,10.07
2023-04-22T10:35:13.833Z,9.43
2023-04-22T10:37:46.433Z,9.43
2023-04-22T10:40:19.107Z,14.23
2023-04-22T10:42:55.989Z,9.70
2023-04-22T10:45:26.751Z,13.25
2023-04-22T10:48:04.568Z,8.88
2023-04-22T10:50:34.912Z,12.48
2023-04-22T10:53:37.864Z,16.02
2023-04-22T10:56:21.045Z,10.75
2023-04-22T10:58:51.876Z,10.13
2023-04-22T11:01:21.935Z,15.15
2023-04-22T11:03:52.348Z,15.43
2023-04-22T11:06:25.026Z,10.02
2023-04-22T11:09:13.120Z,7.65
2023-04-22T11:11:40.803Z,7.72
2023-04-22T11:14:11.514Z,10.88
2023-04-22T11:16:47.843Z,12.88
2023-04-22T11:19:18.082Z,8.45
2023-04-22T11:21:51.125Z,8.88
2023-04-22T11:24:21.121Z,10.93
2023-04-22T11:26:55.436Z,13.07
2023-04-22T11:29:24.342Z,13.82
2023-04-22T11:31:54.413Z,12.70
2023-04-22T11:34:24.208Z,8.90
2023-04-22T11:36:54.368Z,9.75
2023-04-22T11:39:35.316Z,12.85
2023-04-22T11:42:09.426Z,10.15
2023-04-22T11:44:44.852Z,9.25
2023-04-22T11:47:15.204Z,8.48
2023-04-22T11:50:07.278Z,11.00
2023-04-22T11:52:57.163Z,8.90
2023-04-22T11:55:39.739Z,10.90
2023-04-22T11:58:28.381Z,10.95
2023-04-22T12:01:00.137Z,10.50
2023-04-22T12:03:34.188Z,9.23
2023-04-22T12:06:05.959Z,11.73
2023-04-22T12:08:42.612Z,12.18
2023-04-22T12:11:13.971Z,9.35
2023-04-22T12:13:48.093Z,7.78
2023-04-22T12:16:20.463Z,9.95
2023-04-22T12:18:54.808Z,9.20
2023-04-22T12:21:30.213Z,12.80
2023-04-22T12:24:12.799Z,7.80
2023-04-22T12:26:43.043Z,8.52
2023-04-22T12:29:13.701Z,9.45
2023-04-22T12:31:43.829Z,8.90
2023-04-22T12:34:13.968Z,10.55
2023-04-22T12:36:44.165Z,9.73
2023-04-22T12:39:15.404Z,7.97
2023-04-22T12:41:46.154Z,9.40
2023-04-22T12:44:16.456Z,10.43
2023-04-22T12:46:46.827Z,10.85
2023-04-22T12:49:17.304Z,9.40
2023-04-22T12:51:47.406Z,14.15
2023-04-22T12:54:18.868Z,9.07
2023-04-22T12:56:49.469Z,9.63
2023-04-22T12:59:20.239Z,12.20
2023-04-22T13:01:50.488Z,11.98
2023-04-22T13:04:21.521Z,10.48
2023-04-22T13:06:56.499Z,10.10
2023-04-22T13:09:27.169Z,10.15
2023-04-22T13:11:58.547Z,9.23
2023-04-22T13:14:28.875Z,11.35
2023-04-22T13:16:59.095Z,11.98
2023-04-22T13:19:29.910Z,10.43
2023-04-22T13:21:57.706Z,11.65
2023-04-22T13:24:26.672Z,10.25
2023-04-22T13:26:54.685Z,11.88
2023-04-22T13:29:23.808Z,9.77
2023-04-22T13:31:51.562Z,10.35
2023-04-22T13:34:20.051Z,10.43
2023-04-22T13:36:48.503Z,10.27
2023-04-22T13:39:18.011Z,9.73
2023-04-22T13:41:46.150Z,11.57
2023-04-22T13:44:14.390Z,8.48
2023-04-22T13:46:43.810Z,8.60
2023-04-22T13:49:13.559Z,10.23
2023-04-22T13:51:43.722Z,10.00
2023-04-22T13:54:13.867Z,11.48
2023-04-22T13:56:44.035Z,7.88
2023-04-22T13:59:14.162Z,8.30
2023-04-22T14:01:44.486Z,13.13
2023-04-22T14:04:14.631Z,10.32
2023-04-22T14:06:44.979Z,10.82
2023-04-22T14:09:15.175Z,10.60
2023-04-22T14:11:45.417Z,8.35
2023-04-22T14:14:15.535Z,9.65
2023-04-22T14:16:46.069Z,10.70
2023-04-22T14:19:16.681Z,7.82
2023-04-22T14:21:47.392Z,10.85
2023-04-22T14:24:19.526Z,7.97
2023-04-22T14:26:52.130Z,8.88
2023-04-22T14:29:22.545Z,11.55
2023-04-22T14:31:52.729Z,9.75
2023-04-22T14:34:23.204Z,8.00
2023-04-22T14:36:53.522Z,10.05
2023-04-22T14:39:23.714Z,8.10
2023-04-22T14:41:53.909Z,10.68
2023-04-22T14:44:24.317Z,10.02
2023-04-22T14:46:54.512Z,8.25
2023-04-22T14:49:24.638Z,30.42
2023-04-22T14:51:54.975Z,11.73
2023-04-22T14:54:25.147Z,9.35
2023-04-22T14:56:56.185Z,9.75
2023-04-22T14:59:26.610Z,70.78
2023-04-22T15:01:57.360Z,9.32
2023-04-22T15:04:27.932Z,13.20
2023-04-22T15:06:58.302Z,9.73
2023-04-22T15:09:28.704Z,9.85
2023-04-22T15:11:59.785Z,11.20
2023-04-22T15:14:30.030Z,15.18
2023-04-22T15:17:00.685Z,9.40
2023-04-22T15:19:31.065Z,9.88
2023-04-22T15:22:01.845Z,9.75
2023-04-22T15:24:29.873Z,9.18
2023-04-22T15:26:58.885Z,9.93
2023-04-22T15:29:28.689Z,8.27
2023-04-22T15:31:58.188Z,10.43
2023-04-22T15:34:26.503Z,8.10
2023-04-22T15:36:54.813Z,9.20
2023-04-22T15:39:24.983Z,7.10
2023-04-22T15:41:55.207Z,6.82
2023-04-22T15:44:25.528Z,10.57
2023-04-22T15:46:59.639Z,7.28
2023-04-22T15:49:29.892Z,6.55
2023-04-22T15:52:01.260Z,13.45
2023-04-22T15:54:33.073Z,9.07
2023-04-22T15:57:03.730Z,10.07
2023-04-22T15:59:33.869Z,10.77
2023-04-22T16:02:04.487Z,10.00
2023-04-22T16:04:34.996Z,11.13
2023-04-22T16:07:06.171Z,10.63
2023-04-22T16:09:36.515Z,11.65
2023-04-22T16:12:11.171Z,7.10
2023-04-22T16:14:41.894Z,8.18
2023-04-22T16:17:12.616Z,10.63
2023-04-22T16:19:43.514Z,9.43
2023-04-22T16:22:13.720Z,9.18
2023-04-22T16:24:44.321Z,9.25
2023-04-22T16:27:17.132Z,8.15
2023-04-22T16:29:47.584Z,7.50
2023-04-22T16:32:17.920Z,7.95
2023-04-22T16:34:48.114Z,8.57
2023-04-22T16:37:16.742Z,7.45
2023-04-22T16:39:46.436Z,7.60
2023-04-22T16:42:16.547Z,8.95
2023-04-22T16:44:45.030Z,8.88
2023-04-22T16:47:13.455Z,10.40
2023-04-22T16:49:41.790Z,10.23
2023-04-22T16:52:10.420Z,9.02
2023-04-22T16:54:38.727Z,8.52
2023-04-22T16:57:08.394Z,8.90
2023-04-22T16:59:39.480Z,10.27
2023-04-22T17:02:10.229Z,8.43
2023-04-22T17:04:40.592Z,10.93
2023-04-22T17:07:11.132Z,11.55
2023-04-22T17:09:41.713Z,16.98
2023-04-22T17:12:18.793Z,16.20
2023-04-22T17:14:49.078Z,16.80
2023-04-22T17:17:19.198Z,11.55
2023-04-22T17:19:49.410Z,17.77
2023-04-22T17:22:19.612Z,15.95
2023-04-22T17:24:49.719Z,10.75
2023-04-22T17:27:19.872Z,14.70
2023-04-22T17:29:50.031Z,11.93
2023-04-22T17:32:20.138Z,9.75
2023-04-22T17:34:50.482Z,10.77
2023-04-22T17:37:20.643Z,27.98
2023-04-22T17:39:50.850Z,45.67
2023-04-22T17:42:21.534Z,24.80
2023-04-22T17:44:51.699Z,32.90
2023-04-22T17:47:22.134Z,24.63
2023-04-22T17:49:52.423Z,17.27
2023-04-22T17:52:23.409Z,15.52
2023-04-22T17:54:53.717Z,13.20
2023-04-22T17:57:23.900Z,15.23
2023-04-22T18:04:28.327Z,9.63
2023-04-22T18:06:57.158Z,12.70
2023-04-22T18:09:27.501Z,12.98
2023-04-22T18:11:58.845Z,13.20
2023-04-22T18:14:28.217Z,13.13
2023-04-22T18:16:58.468Z,12.23
2023-04-22T18:19:28.777Z,11.65
2023-04-22T18:22:00.272Z,16.20
2023-04-22T18:24:29.335Z,13.90
2023-04-22T18:26:59.538Z,15.27
2023-04-22T18:29:29.663Z,12.95
2023-04-22T18:32:00.204Z,13.35
2023-04-22T18:34:31.126Z,15.68
2023-04-22T18:37:00.948Z,12.93
2023-04-22T18:39:31.343Z,13.60
2023-04-22T18:42:02.416Z,14.52
2023-04-22T18:44:32.315Z,20.52
2023-04-22T18:47:02.507Z,19.15
2023-04-22T18:49:33.980Z,16.60
2023-04-22T18:52:03.358Z,18.83
2023-04-22T18:54:33.572Z,17.58
2023-04-22T18:57:03.768Z,16.48
2023-04-22T18:59:34.456Z,17.70
2023-04-22T19:02:05.996Z,33.00
2023-04-22T19:04:34.465Z,23.23
2023-04-22T19:07:04.771Z,22.23
2023-04-22T19:09:35.020Z,21.25
2023-04-22T19:12:15.166Z,26.08
2023-04-22T19:14:44.253Z,30.08
2023-04-22T19:17:12.391Z,29.20
2023-04-22T19:19:41.110Z,39.50
2023-04-22T19:22:09.808Z,37.78
2023-04-22T19:24:39.734Z,44.90
2023-04-22T19:27:12.616Z,47.10
2023-04-22T19:29:43.890Z,37.58
2023-04-22T19:32:13.711Z,32.67
2023-04-22T19:34:43.808Z,32.65
2023-04-22T19:37:14.107Z,27.95
2023-04-22T19:39:44.613Z,29.38
2023-04-22T19:42:20.536Z,26.83
2023-04-22T19:44:48.710Z,24.80
2023-04-22T19:47:19.229Z,27.65
2023-04-22T19:49:49.754Z,26.75
2023-04-22T19:52:23.461Z,20.92
2023-04-22T19:54:56.307Z,23.33
2023-04-22T19:57:27.324Z,18.80
2023-04-22T19:59:57.518Z,19.83
2023-04-22T20:02:28.703Z,20.55
2023-04-22T20:04:59.405Z,20.27
2023-04-22T20:07:32.959Z,17.33
2023-04-22T20:10:07.516Z,18.65
2023-04-22T20:12:38.138Z,17.90
2023-04-22T20:15:10.711Z,14.70
2023-04-22T20:17:41.467Z,13.00
2023-04-22T20:20:13.553Z,16.15
2023-04-22T20:22:46.458Z,19.08
2023-04-22T20:25:17.574Z,19.10
2023-04-22T20:27:48.888Z,17.63
2023-04-22T20:30:19.294Z,19.98
2023-04-22T20:32:49.792Z,20.63
2023-04-22T20:35:20.754Z,21.48
2023-04-22T20:37:58.321Z,20.30
2023-04-22T20:40:29.925Z,22.15
2023-04-22T20:43:00.211Z,20.40
2023-04-22T20:45:30.520Z,19.25
2023-04-22T20:48:00.790Z,17.17
2023-04-22T20:50:33.621Z,13.40
2023-04-22T20:53:04.266Z,15.52
2023-04-22T20:55:36.856Z,16.50
2023-04-22T20:58:07.462Z,14.20
2023-04-22T21:00:37.799Z,14.57
2023-04-22T21:03:10.155Z,17.45
2023-04-22T21:05:45.201Z,13.07
2023-04-22T21:08:23.366Z,17.17
2023-04-22T21:10:57.081Z,14.05
2023-04-22T21:13:25.847Z,17.38
2023-04-22T21:16:02.534Z,18.95
2023-04-22T21:18:35.047Z,16.55
2023-04-22T21:21:08.309Z,15.20
2023-04-22T21:23:42.349Z,15.98
2023-04-22T21:26:15.766Z,17.90
2023-04-22T21:28:46.500Z,15.43
2023-04-22T21:31:17.066Z,16.55
2023-04-22T21:33:47.180Z,18.48
2023-04-22T21:36:17.396Z,18.65
2023-04-22T21:38:50.264Z,17.42
2023-04-22T21:41:20.525Z,19.70
2023-04-22T21:43:50.726Z,15.30
2023-04-22T21:46:22.260Z,16.00
2023-04-22T21:48:52.388Z,19.98
2023-04-22T21:51:21.634Z,15.18
2023-04-22T21:53:50.024Z,21.63
2023-04-22T21:56:18.056Z,17.25
2023-04-22T21:58:46.005Z,17.83
2023-04-22T22:01:14.530Z,17.63
2023-04-22T22:03:42.949Z,15.60
2023-04-22T22:06:11.310Z,17.88
2023-04-22T22:08:40.897Z,18.13
2023-04-22T22:11:12.434Z,14.93
2023-04-22T22:13:49.431Z,16.85
2023-04-22T22:16:19.659Z,16.50
2023-04-22T22:18:50.248Z,19.30
2023-04-22T22:21:20.419Z,19.30
2023-04-22T22:23:50.674Z,19.08
2023-04-22T22:26:20.872Z,16.45
2023-04-22T22:28:51.058Z,17.77
2023-04-22T22:31:21.602Z,16.60
2023-04-22T22:33:51.787Z,18.65
2023-04-22T22:36:21.997Z,19.35
2023-04-22T22:38:52.656Z,15.63
2023-04-22T22:41:22.939Z,20.13
2023-04-22T22:43:53.184Z,17.27
2023-04-22T22:46:23.756Z,15.73
2023-04-22T22:48:54.757Z,17.25
2023-04-22T22:51:25.118Z,16.33
2023-04-22T22:53:55.447Z,19.50
2023-04-22T22:56:26.005Z,20.48
2023-04-22T22:58:56.216Z,18.90
2023-04-22T23:01:26.442Z,15.60
2023-04-22T23:03:56.788Z,18.08
2023-04-22T23:06:27.473Z,20.40
2023-04-22T23:08:58.018Z,18.77
2023-04-22T23:11:28.154Z,16.30
2023-04-22T23:13:58.409Z,17.98
2023-04-22T23:16:28.677Z,18.77
2023-04-22T23:19:00.265Z,16.63
2023-04-22T23:21:32.680Z,15.15
2023-04-22T23:24:03.925Z,15.25
2023-04-22T23:26:35.020Z,14.70
2023-04-22T23:29:06.932Z,17.58
2023-04-22T23:31:40.442Z,16.52
2023-04-22T23:34:11.504Z,19.75
2023-04-22T23:36:44.619Z,15.05
2023-04-22T23:39:13.316Z,16.48
2023-04-22T23:41:41.530Z,15.15
2023-04-22T23:44:09.899Z,18.13
2023-04-22T23:46:38.594Z,19.70
2023-04-22T23:49:07.485Z,20.70
2023-04-22T23:51:35.437Z,17.13
2023-04-22T23:54:03.627Z,19.02
2023-04-22T23:56:32.480Z,18.83
2023-04-22T23:59:00.858Z,17.10
